Terminal Aerodrome Forecast
Issued by NWS Spokane, WA

Home | Current Version | Previous Version | Text Only | Print | Product List | Glossary On
Versions: 1 2 3 4 5 6 7 8 9 10 11 12 13 14 15 16 17 18 19 20 21 22 23 24
000
FTUS46 KOTX 271140
TAFLWS
TAF
KLWS 271140Z 2712/2812 20009KT P6SM VCSH BKN050 OVC090
     FM271900 32009G15KT P6SM SCT060
     FM280300 17005KT P6SM SCT080 SCT200
     FM280800 15003KT P6SM SCT150=

USA.gov is the U.S. government's official web portal to all federal, state and local government web resources and services.